sensor_id;sensor_type;location;lat;lon;timestamp;temperature;humidity
28193;DHT22;15473;50.840;3.396;2023-03-04T00:00:25;5.20;99.90
28193;DHT22;15473;50.840;3.396;2023-03-04T00:03:12;5.20;99.90
28193;DHT22;15473;50.840;3.396;2023-03-04T00:06:07;5.20;99.90
28193;DHT22;15473;50.840;3.396;2023-03-04T00:08:59;5.20;99.90
28193;DHT22;15473;50.840;3.396;2023-03-04T00:11:52;5.20;99.90
28193;DHT22;15473;50.840;3.396;2023-03-04T00:14:37;5.20;99.90
28193;DHT22;15473;50.840;3.396;2023-03-04T00:17:25;5.20;99.90
28193;DHT22;15473;50.840;3.396;2023-03-04T00:20:17;5.20;99.90
28193;DHT22;15473;50.840;3.396;2023-03-04T00:23:03;5.20;99.90
28193;DHT22;15473;50.840;3.396;2023-03-04T00:25:48;5.20;99.90
28193;DHT22;15473;50.840;3.396;2023-03-04T00:28:39;5.20;99.90
28193;DHT22;15473;50.840;3.396;2023-03-04T00:31:32;5.20;99.90
28193;DHT22;15473;50.840;3.396;2023-03-04T00:34:17;5.20;99.90
28193;DHT22;15473;50.840;3.396;2023-03-04T00:37:02;5.20;99.90
28193;DHT22;15473;50.840;3.396;2023-03-04T00:39:48;5.20;99.90
28193;DHT22;15473;50.840;3.396;2023-03-04T00:42:33;5.20;99.90
28193;DHT22;15473;50.840;3.396;2023-03-04T00:45:27;5.20;99.90
28193;DHT22;15473;50.840;3.396;2023-03-04T00:48:13;5.20;99.90
28193;DHT22;15473;50.840;3.396;2023-03-04T00:51:00;5.20;99.90
28193;DHT22;15473;50.840;3.396;2023-03-04T00:53:51;5.20;99.90
28193;DHT22;15473;50.840;3.396;2023-03-04T00:56:37;5.20;99.90
28193;DHT22;15473;50.840;3.396;2023-03-04T00:59:24;5.20;99.90
28193;DHT22;15473;50.840;3.396;2023-03-04T01:02:16;5.20;99.90
28193;DHT22;15473;50.840;3.396;2023-03-04T01:05:08;5.20;99.90
28193;DHT22;15473;50.840;3.396;2023-03-04T01:07:53;5.20;99.90
28193;DHT22;15473;50.840;3.396;2023-03-04T01:10:38;5.20;99.90
28193;DHT22;15473;50.840;3.396;2023-03-04T01:13:24;5.10;99.90
28193;DHT22;15473;50.840;3.396;2023-03-04T01:16:16;5.10;99.90
28193;DHT22;15473;50.840;3.396;2023-03-04T01:19:02;5.10;99.90
28193;DHT22;15473;50.840;3.396;2023-03-04T01:21:54;5.10;99.90
28193;DHT22;15473;50.840;3.396;2023-03-04T01:24:41;5.10;99.90
28193;DHT22;15473;50.840;3.396;2023-03-04T01:27:28;5.10;99.90
28193;DHT22;15473;50.840;3.396;2023-03-04T01:30:20;5.10;99.90
28193;DHT22;15473;50.840;3.396;2023-03-04T01:33:06;5.10;99.90
28193;DHT22;15473;50.840;3.396;2023-03-04T01:35:51;5.10;99.90
28193;DHT22;15473;50.840;3.396;2023-03-04T01:38:36;5.10;99.90
28193;DHT22;15473;50.840;3.396;2023-03-04T01:41:28;5.10;99.90
28193;DHT22;15473;50.840;3.396;2023-03-04T01:44:20;5.10;99.90
28193;DHT22;15473;50.840;3.396;2023-03-04T01:47:09;5.10;99.90
28193;DHT22;15473;50.840;3.396;2023-03-04T01:49:55;5.10;99.90
28193;DHT22;15473;50.840;3.396;2023-03-04T01:52:47;5.10;99.90
28193;DHT22;15473;50.840;3.396;2023-03-04T01:55:39;5.10;99.90
28193;DHT22;15473;50.840;3.396;2023-03-04T01:58:27;5.10;99.90
28193;DHT22;15473;50.840;3.396;2023-03-04T02:01:19;5.10;99.90
28193;DHT22;15473;50.840;3.396;2023-03-04T02:04:04;5.10;99.90
28193;DHT22;15473;50.840;3.396;2023-03-04T02:06:51;5.10;99.90
28193;DHT22;15473;50.840;3.396;2023-03-04T02:09:37;5.10;99.90
28193;DHT22;15473;50.840;3.396;2023-03-04T02:12:22;5.10;99.90
28193;DHT22;15473;50.840;3.396;2023-03-04T02:15:14;5.10;99.90
28193;DHT22;15473;50.840;3.396;2023-03-04T02:18:00;5.10;99.90
28193;DHT22;15473;50.840;3.396;2023-03-04T02:23:59;5.10;99.90
28193;DHT22;15473;50.840;3.396;2023-03-04T02:26:43;5.10;99.90
28193;DHT22;15473;50.840;3.396;2023-03-04T02:29:36;5.10;99.90
28193;DHT22;15473;50.840;3.396;2023-03-04T02:32:22;5.10;99.90
28193;DHT22;15473;50.840;3.396;2023-03-04T02:35:08;5.10;99.90
28193;DHT22;15473;50.840;3.396;2023-03-04T02:37:56;5.10;99.90
28193;DHT22;15473;50.840;3.396;2023-03-04T02:40:48;5.10;99.90
28193;DHT22;15473;50.840;3.396;2023-03-04T02:43:36;5.10;99.90
28193;DHT22;15473;50.840;3.396;2023-03-04T02:46:21;5.10;99.90
28193;DHT22;15473;50.840;3.396;2023-03-04T02:49:07;5.10;99.90
28193;DHT22;15473;50.840;3.396;2023-03-04T02:52:00;5.10;99.90
28193;DHT22;15473;50.840;3.396;2023-03-04T02:54:53;5.10;99.90
28193;DHT22;15473;50.840;3.396;2023-03-04T02:57:45;5.10;99.90
28193;DHT22;15473;50.840;3.396;2023-03-04T03:00:37;5.10;99.90
28193;DHT22;15473;50.840;3.396;2023-03-04T03:03:29;5.10;99.90
28193;DHT22;15473;50.840;3.396;2023-03-04T03:06:14;5.20;99.90
28193;DHT22;15473;50.840;3.396;2023-03-04T03:09:02;5.10;99.90
28193;DHT22;15473;50.840;3.396;2023-03-04T03:11:53;5.20;99.90
28193;DHT22;15473;50.840;3.396;2023-03-04T03:14:39;5.20;99.90
28193;DHT22;15473;50.840;3.396;2023-03-04T03:17:31;5.20;99.90
28193;DHT22;15473;50.840;3.396;2023-03-04T03:20:22;5.20;99.90
28193;DHT22;15473;50.840;3.396;2023-03-04T03:23:14;5.20;99.90
28193;DHT22;15473;50.840;3.396;2023-03-04T03:26:01;5.10;99.90
28193;DHT22;15473;50.840;3.396;2023-03-04T03:28:46;5.20;99.90
28193;DHT22;15473;50.840;3.396;2023-03-04T03:31:32;5.20;99.90
28193;DHT22;15473;50.840;3.396;2023-03-04T03:34:17;5.20;99.90
28193;DHT22;15473;50.840;3.396;2023-03-04T03:37:10;5.20;99.90
28193;DHT22;15473;50.840;3.396;2023-03-04T03:40:02;5.20;99.90
28193;DHT22;15473;50.840;3.396;2023-03-04T03:42:54;5.20;99.90
28193;DHT22;15473;50.840;3.396;2023-03-04T03:45:40;5.20;99.90
28193;DHT22;15473;50.840;3.396;2023-03-04T03:48:25;5.10;99.90
28193;DHT22;15473;50.840;3.396;2023-03-04T03:51:11;5.10;99.90
28193;DHT22;15473;50.840;3.396;2023-03-04T03:54:03;5.20;99.90
28193;DHT22;15473;50.840;3.396;2023-03-04T03:56:48;5.10;99.90
28193;DHT22;15473;50.840;3.396;2023-03-04T03:59:33;5.10;99.90
28193;DHT22;15473;50.840;3.396;2023-03-04T04:02:21;5.10;99.90
28193;DHT22;15473;50.840;3.396;2023-03-04T04:05:12;5.10;99.90
28193;DHT22;15473;50.840;3.396;2023-03-04T04:07:59;5.10;99.90
28193;DHT22;15473;50.840;3.396;2023-03-04T04:10:51;5.10;99.90
28193;DHT22;15473;50.840;3.396;2023-03-04T04:13:43;5.10;99.90
28193;DHT22;15473;50.840;3.396;2023-03-04T04:16:34;5.10;99.90
28193;DHT22;15473;50.840;3.396;2023-03-04T04:19:20;5.10;99.90
28193;DHT22;15473;50.840;3.396;2023-03-04T04:22:15;5.10;99.90
28193;DHT22;15473;50.840;3.396;2023-03-04T04:25:07;5.10;99.90
28193;DHT22;15473;50.840;3.396;2023-03-04T04:27:54;5.10;99.90
28193;DHT22;15473;50.840;3.396;2023-03-04T04:30:46;5.10;99.90
28193;DHT22;15473;50.840;3.396;2023-03-04T04:33:39;5.10;99.90
28193;DHT22;15473;50.840;3.396;2023-03-04T04:36:24;5.10;99.90
28193;DHT22;15473;50.840;3.396;2023-03-04T04:39:12;5.10;99.90
28193;DHT22;15473;50.840;3.396;2023-03-04T04:41:58;5.10;99.90
28193;DHT22;15473;50.840;3.396;2023-03-04T04:44:45;5.10;99.90
28193;DHT22;15473;50.840;3.396;2023-03-04T04:47:31;5.10;99.90
28193;DHT22;15473;50.840;3.396;2023-03-04T04:50:16;5.10;99.90
28193;DHT22;15473;50.840;3.396;2023-03-04T04:53:06;5.10;99.90
28193;DHT22;15473;50.840;3.396;2023-03-04T04:55:52;5.10;99.90
28193;DHT22;15473;50.840;3.396;2023-03-04T04:58:39;5.10;99.90
28193;DHT22;15473;50.840;3.396;2023-03-04T05:01:29;5.10;99.90
28193;DHT22;15473;50.840;3.396;2023-03-04T05:04:21;5.10;99.90
28193;DHT22;15473;50.840;3.396;2023-03-04T05:07:13;5.10;99.90
28193;DHT22;15473;50.840;3.396;2023-03-04T05:09:58;5.10;99.90
28193;DHT22;15473;50.840;3.396;2023-03-04T05:12:47;5.10;99.90
28193;DHT22;15473;50.840;3.396;2023-03-04T05:15:40;5.10;99.90
28193;DHT22;15473;50.840;3.396;2023-03-04T05:18:29;5.10;99.90
28193;DHT22;15473;50.840;3.396;2023-03-04T05:21:17;5.10;99.90
28193;DHT22;15473;50.840;3.396;2023-03-04T05:24:03;5.10;99.90
28193;DHT22;15473;50.840;3.396;2023-03-04T05:26:48;5.10;99.90
28193;DHT22;15473;50.840;3.396;2023-03-04T05:29:34;5.10;99.90
28193;DHT22;15473;50.840;3.396;2023-03-04T05:32:23;5.10;99.90
28193;DHT22;15473;50.840;3.396;2023-03-04T05:35:09;5.10;99.90
28193;DHT22;15473;50.840;3.396;2023-03-04T05:37:55;5.10;99.90
28193;DHT22;15473;50.840;3.396;2023-03-04T05:40:47;5.10;99.90
28193;DHT22;15473;50.840;3.396;2023-03-04T05:43:38;5.10;99.90
28193;DHT22;15473;50.840;3.396;2023-03-04T05:46:33;5.10;99.90
28193;DHT22;15473;50.840;3.396;2023-03-04T05:49:18;5.10;99.90
28193;DHT22;15473;50.840;3.396;2023-03-04T05:52:08;5.10;99.90
28193;DHT22;15473;50.840;3.396;2023-03-04T05:54:59;5.10;99.90
28193;DHT22;15473;50.840;3.396;2023-03-04T05:57:52;5.00;99.90
28193;DHT22;15473;50.840;3.396;2023-03-04T06:00:45;5.10;99.90
28193;DHT22;15473;50.840;3.396;2023-03-04T06:03:32;5.00;99.90
28193;DHT22;15473;50.840;3.396;2023-03-04T06:06:18;5.00;99.90
28193;DHT22;15473;50.840;3.396;2023-03-04T06:09:10;5.00;99.90
28193;DHT22;15473;50.840;3.396;2023-03-04T06:12:02;5.00;99.90
28193;DHT22;15473;50.840;3.396;2023-03-04T06:14:54;5.00;99.90
28193;DHT22;15473;50.840;3.396;2023-03-04T06:17:40;5.00;99.90
28193;DHT22;15473;50.840;3.396;2023-03-04T06:20:26;5.00;99.90
28193;DHT22;15473;50.840;3.396;2023-03-04T06:23:17;5.00;99.90
28193;DHT22;15473;50.840;3.396;2023-03-04T06:26:04;5.00;99.90
28193;DHT22;15473;50.840;3.396;2023-03-04T06:28:51;5.00;99.90
28193;DHT22;15473;50.840;3.396;2023-03-04T06:31:44;5.00;99.90
28193;DHT22;15473;50.840;3.396;2023-03-04T06:34:30;5.00;99.90
28193;DHT22;15473;50.840;3.396;2023-03-04T06:37:17;5.00;99.90
28193;DHT22;15473;50.840;3.396;2023-03-04T06:40:02;5.00;99.90
28193;DHT22;15473;50.840;3.396;2023-03-04T06:42:48;5.00;99.90
28193;DHT22;15473;50.840;3.396;2023-03-04T06:45:37;5.10;99.90
28193;DHT22;15473;50.840;3.396;2023-03-04T06:48:34;5.10;99.90
28193;DHT22;15473;50.840;3.396;2023-03-04T06:51:19;5.10;99.90
28193;DHT22;15473;50.840;3.396;2023-03-04T06:54:05;5.10;99.90
28193;DHT22;15473;50.840;3.396;2023-03-04T06:56:51;5.10;99.90
28193;DHT22;15473;50.840;3.396;2023-03-04T06:59:38;5.10;99.90
28193;DHT22;15473;50.840;3.396;2023-03-04T07:02:31;5.20;99.90
28193;DHT22;15473;50.840;3.396;2023-03-04T07:05:29;5.20;99.90
28193;DHT22;15473;50.840;3.396;2023-03-04T07:08:14;5.20;99.90
28193;DHT22;15473;50.840;3.396;2023-03-04T07:11:00;5.30;99.90
28193;DHT22;15473;50.840;3.396;2023-03-04T07:13:45;5.30;99.90
28193;DHT22;15473;50.840;3.396;2023-03-04T07:16:37;5.30;99.90
28193;DHT22;15473;50.840;3.396;2023-03-04T07:19:29;5.50;99.90
28193;DHT22;15473;50.840;3.396;2023-03-04T07:22:20;5.50;99.90
28193;DHT22;15473;50.840;3.396;2023-03-04T07:25:12;5.50;99.90
28193;DHT22;15473;50.840;3.396;2023-03-04T07:28:04;5.60;99.90
28193;DHT22;15473;50.840;3.396;2023-03-04T07:30:50;5.70;99.90
28193;DHT22;15473;50.840;3.396;2023-03-04T07:33:39;5.70;99.90
28193;DHT22;15473;50.840;3.396;2023-03-04T07:36:26;5.80;99.90
28193;DHT22;15473;50.840;3.396;2023-03-04T07:39:11;5.80;99.90
28193;DHT22;15473;50.840;3.396;2023-03-04T07:41:59;5.90;99.90
28193;DHT22;15473;50.840;3.396;2023-03-04T07:44:52;5.90;99.90
28193;DHT22;15473;50.840;3.396;2023-03-04T07:47:45;6.00;99.90
28193;DHT22;15473;50.840;3.396;2023-03-04T07:50:32;6.00;99.90
28193;DHT22;15473;50.840;3.396;2023-03-04T07:53:24;6.10;99.90
28193;DHT22;15473;50.840;3.396;2023-03-04T07:56:17;6.10;99.90
28193;DHT22;15473;50.840;3.396;2023-03-04T07:59:04;6.20;99.90
28193;DHT22;15473;50.840;3.396;2023-03-04T08:01:56;6.30;99.90
28193;DHT22;15473;50.840;3.396;2023-03-04T08:04:41;6.40;99.90
28193;DHT22;15473;50.840;3.396;2023-03-04T08:07:33;6.40;99.90
28193;DHT22;15473;50.840;3.396;2023-03-04T08:10:24;6.50;99.90
28193;DHT22;15473;50.840;3.396;2023-03-04T08:13:16;6.60;99.90
28193;DHT22;15473;50.840;3.396;2023-03-04T08:16:03;6.60;99.90
28193;DHT22;15473;50.840;3.396;2023-03-04T08:18:51;6.80;99.90
28193;DHT22;15473;50.840;3.396;2023-03-04T08:21:37;6.90;99.90
28193;DHT22;15473;50.840;3.396;2023-03-04T08:24:26;7.10;99.90
28193;DHT22;15473;50.840;3.396;2023-03-04T08:27:11;7.30;99.90
28193;DHT22;15473;50.840;3.396;2023-03-04T08:29:57;7.40;99.90
28193;DHT22;15473;50.840;3.396;2023-03-04T08:32:42;7.50;99.90
28193;DHT22;15473;50.840;3.396;2023-03-04T08:35:38;7.60;99.90
28193;DHT22;15473;50.840;3.396;2023-03-04T08:38:24;7.60;99.90
28193;DHT22;15473;50.840;3.396;2023-03-04T08:41:09;7.70;99.90
28193;DHT22;15473;50.840;3.396;2023-03-04T08:44:01;7.80;99.90
28193;DHT22;15473;50.840;3.396;2023-03-04T08:46:55;7.80;99.90
28193;DHT22;15473;50.840;3.396;2023-03-04T08:49:48;7.90;99.90
28193;DHT22;15473;50.840;3.396;2023-03-04T08:52:33;7.90;99.90
28193;DHT22;15473;50.840;3.396;2023-03-04T08:55:21;8.00;99.90
28193;DHT22;15473;50.840;3.396;2023-03-04T08:58:08;8.00;99.90
28193;DHT22;15473;50.840;3.396;2023-03-04T09:01:00;8.00;99.90
28193;DHT22;15473;50.840;3.396;2023-03-04T09:03:45;8.00;99.90
28193;DHT22;15473;50.840;3.396;2023-03-04T09:06:37;8.10;99.90
28193;DHT22;15473;50.840;3.396;2023-03-04T09:09:28;8.10;99.90
28193;DHT22;15473;50.840;3.396;2023-03-04T09:12:15;8.10;99.90
28193;DHT22;15473;50.840;3.396;2023-03-04T09:15:00;8.20;99.90
28193;DHT22;15473;50.840;3.396;2023-03-04T09:17:53;8.30;99.90
28193;DHT22;15473;50.840;3.396;2023-03-04T09:20:45;8.50;99.90
28193;DHT22;15473;50.840;3.396;2023-03-04T09:23:38;8.70;99.90
28193;DHT22;15473;50.840;3.396;2023-03-04T09:26:25;8.80;99.90
28193;DHT22;15473;50.840;3.396;2023-03-04T09:29:11;8.90;99.90
28193;DHT22;15473;50.840;3.396;2023-03-04T09:32:03;9.10;99.90
28193;DHT22;15473;50.840;3.396;2023-03-04T09:34:53;9.20;99.90
28193;DHT22;15473;50.840;3.396;2023-03-04T09:37:38;9.20;99.90
28193;DHT22;15473;50.840;3.396;2023-03-04T09:40:38;9.40;99.90
28193;DHT22;15473;50.840;3.396;2023-03-04T09:43:29;9.40;99.90
28193;DHT22;15473;50.840;3.396;2023-03-04T09:46:28;9.70;99.90
28193;DHT22;15473;50.840;3.396;2023-03-04T09:49:21;9.90;99.90
28193;DHT22;15473;50.840;3.396;2023-03-04T09:55:19;10.20;99.90
28193;DHT22;15473;50.840;3.396;2023-03-04T09:58:23;10.30;99.90
28193;DHT22;15473;50.840;3.396;2023-03-04T10:01:09;10.50;99.90
28193;DHT22;15473;50.840;3.396;2023-03-04T10:03:54;10.90;99.90
28193;DHT22;15473;50.840;3.396;2023-03-04T10:06:40;11.30;99.90
28193;DHT22;15473;50.840;3.396;2023-03-04T10:09:42;11.50;99.90
28193;DHT22;15473;50.840;3.396;2023-03-04T10:12:32;11.70;99.90
28193;DHT22;15473;50.840;3.396;2023-03-04T10:18:31;11.80;99.90
28193;DHT22;15473;50.840;3.396;2023-03-04T10:21:19;11.70;99.90
28193;DHT22;15473;50.840;3.396;2023-03-04T10:24:14;11.70;99.90
28193;DHT22;15473;50.840;3.396;2023-03-04T10:27:03;11.50;99.90
28193;DHT22;15473;50.840;3.396;2023-03-04T10:29:52;11.20;99.90
28193;DHT22;15473;50.840;3.396;2023-03-04T10:32:40;11.00;99.90
28193;DHT22;15473;50.840;3.396;2023-03-04T10:35:33;10.80;99.90
28193;DHT22;15473;50.840;3.396;2023-03-04T10:38:21;10.60;99.90
28193;DHT22;15473;50.840;3.396;2023-03-04T10:41:14;10.30;99.90
28193;DHT22;15473;50.840;3.396;2023-03-04T10:46:56;10.00;99.90
28193;DHT22;15473;50.840;3.396;2023-03-04T10:49:50;9.90;99.90
28193;DHT22;15473;50.840;3.396;2023-03-04T10:52:46;9.90;99.90
28193;DHT22;15473;50.840;3.396;2023-03-04T10:55:41;9.90;99.90
28193;DHT22;15473;50.840;3.396;2023-03-04T10:58:33;10.00;99.90
28193;DHT22;15473;50.840;3.396;2023-03-04T11:01:20;10.10;99.90
28193;DHT22;15473;50.840;3.396;2023-03-04T11:04:15;10.30;99.90
28193;DHT22;15473;50.840;3.396;2023-03-04T11:06:57;10.70;99.90
28193;DHT22;15473;50.840;3.396;2023-03-04T11:09:43;11.30;99.90
28193;DHT22;15473;50.840;3.396;2023-03-04T11:12:35;11.70;99.90
28193;DHT22;15473;50.840;3.396;2023-03-04T11:15:28;11.90;99.90
28193;DHT22;15473;50.840;3.396;2023-03-04T11:18:14;12.00;99.90
28193;DHT22;15473;50.840;3.396;2023-03-04T11:21:00;11.90;99.90
28193;DHT22;15473;50.840;3.396;2023-03-04T11:23:56;11.80;99.90
28193;DHT22;15473;50.840;3.396;2023-03-04T11:26:50;11.60;99.90
28193;DHT22;15473;50.840;3.396;2023-03-04T11:29:54;11.40;99.90
28193;DHT22;15473;50.840;3.396;2023-03-04T11:32:42;11.10;99.90
28193;DHT22;15473;50.840;3.396;2023-03-04T11:35:35;10.90;99.90
28193;DHT22;15473;50.840;3.396;2023-03-04T11:38:41;10.70;99.90
28193;DHT22;15473;50.840;3.396;2023-03-04T11:41:33;10.60;99.90
28193;DHT22;15473;50.840;3.396;2023-03-04T11:44:26;11.90;99.90
28193;DHT22;15473;50.840;3.396;2023-03-04T11:47:33;13.90;99.90
28193;DHT22;15473;50.840;3.396;2023-03-04T11:50:35;15.90;99.90
28193;DHT22;15473;50.840;3.396;2023-03-04T11:59:22;18.10;99.90
28193;DHT22;15473;50.840;3.396;2023-03-04T12:02:15;17.20;99.90
28193;DHT22;15473;50.840;3.396;2023-03-04T12:05:18;16.30;99.90
28193;DHT22;15473;50.840;3.396;2023-03-04T12:08:19;15.50;99.90
28193;DHT22;15473;50.840;3.396;2023-03-04T12:11:04;14.80;99.90
28193;DHT22;15473;50.840;3.396;2023-03-04T12:14:01;14.20;99.90
28193;DHT22;15473;50.840;3.396;2023-03-04T12:19:46;13.20;99.90
28193;DHT22;15473;50.840;3.396;2023-03-04T12:28:38;12.60;99.90
28193;DHT22;15473;50.840;3.396;2023-03-04T12:31:23;12.60;99.90
28193;DHT22;15473;50.840;3.396;2023-03-04T12:40:26;12.60;99.90
28193;DHT22;15473;50.840;3.396;2023-03-04T12:46:21;12.10;99.90
28193;DHT22;15473;50.840;3.396;2023-03-04T12:49:19;11.90;99.90
28193;DHT22;15473;50.840;3.396;2023-03-04T12:55:01;11.60;99.90
28193;DHT22;15473;50.840;3.396;2023-03-04T12:57:54;11.40;99.90
28193;DHT22;15473;50.840;3.396;2023-03-04T13:00:57;11.40;99.90
28193;DHT22;15473;50.840;3.396;2023-03-04T13:03:56;11.40;99.90
28193;DHT22;15473;50.840;3.396;2023-03-04T13:06:42;11.40;99.90
28193;DHT22;15473;50.840;3.396;2023-03-04T13:15:40;11.70;99.90
28193;DHT22;15473;50.840;3.396;2023-03-04T13:18:34;12.10;99.90
28193;DHT22;15473;50.840;3.396;2023-03-04T13:21:25;12.60;99.90
28193;DHT22;15473;50.840;3.396;2023-03-04T13:36:37;13.40;99.90
28193;DHT22;15473;50.840;3.396;2023-03-04T13:39:32;13.20;99.90
28193;DHT22;15473;50.840;3.396;2023-03-04T13:43:03;13.00;99.90
28193;DHT22;15473;50.840;3.396;2023-03-04T13:45:30;13.00;99.90
28193;DHT22;15473;50.840;3.396;2023-03-04T13:48:32;13.20;99.90
28193;DHT22;15473;50.840;3.396;2023-03-04T13:51:24;13.60;99.90
28193;DHT22;15473;50.840;3.396;2023-03-04T13:57:21;14.50;99.90
28193;DHT22;15473;50.840;3.396;2023-03-04T14:00:11;14.70;99.90
28193;DHT22;15473;50.840;3.396;2023-03-04T14:03:13;14.70;99.90
28193;DHT22;15473;50.840;3.396;2023-03-04T14:06:09;14.50;99.90
28193;DHT22;15473;50.840;3.396;2023-03-04T14:09:06;14.50;99.90
28193;DHT22;15473;50.840;3.396;2023-03-04T14:11:58;14.40;99.90
28193;DHT22;15473;50.840;3.396;2023-03-04T14:14:51;14.30;99.90
28193;DHT22;15473;50.840;3.396;2023-03-04T14:17:39;14.00;99.90
28193;DHT22;15473;50.840;3.396;2023-03-04T14:20:33;13.70;99.90
28193;DHT22;15473;50.840;3.396;2023-03-04T14:23:29;13.40;99.90
28193;DHT22;15473;50.840;3.396;2023-03-04T14:26:19;13.20;99.90
28193;DHT22;15473;50.840;3.396;2023-03-04T14:29:18;12.90;99.90
28193;DHT22;15473;50.840;3.396;2023-03-04T14:31:52;12.70;99.90
28193;DHT22;15473;50.840;3.396;2023-03-04T14:34:40;12.50;99.90
28193;DHT22;15473;50.840;3.396;2023-03-04T14:37:35;12.20;99.90
28193;DHT22;15473;50.840;3.396;2023-03-04T14:40:19;12.00;99.90
28193;DHT22;15473;50.840;3.396;2023-03-04T14:43:07;11.80;99.90
28193;DHT22;15473;50.840;3.396;2023-03-04T14:45:54;11.70;99.90
28193;DHT22;15473;50.840;3.396;2023-03-04T14:48:44;11.60;99.90
28193;DHT22;15473;50.840;3.396;2023-03-04T14:54:36;11.50;99.90
28193;DHT22;15473;50.840;3.396;2023-03-04T14:57:22;11.30;99.90
28193;DHT22;15473;50.840;3.396;2023-03-04T15:03:19;11.10;99.90
28193;DHT22;15473;50.840;3.396;2023-03-04T15:06:06;10.80;99.90
28193;DHT22;15473;50.840;3.396;2023-03-04T15:08:58;10.70;99.90
28193;DHT22;15473;50.840;3.396;2023-03-04T15:12:01;10.70;99.90
28193;DHT22;15473;50.840;3.396;2023-03-04T15:14:51;10.70;99.90
28193;DHT22;15473;50.840;3.396;2023-03-04T15:17:38;10.70;99.90
28193;DHT22;15473;50.840;3.396;2023-03-04T15:20:30;10.90;99.90
28193;DHT22;15473;50.840;3.396;2023-03-04T15:23:15;11.10;99.90
28193;DHT22;15473;50.840;3.396;2023-03-04T15:26:02;11.30;99.90
28193;DHT22;15473;50.840;3.396;2023-03-04T15:28:48;11.60;99.90
28193;DHT22;15473;50.840;3.396;2023-03-04T15:31:33;11.90;99.90
28193;DHT22;15473;50.840;3.396;2023-03-04T15:34:19;12.30;99.90
28193;DHT22;15473;50.840;3.396;2023-03-04T15:37:12;12.50;99.90
28193;DHT22;15473;50.840;3.396;2023-03-04T15:39:57;12.60;99.90
28193;DHT22;15473;50.840;3.396;2023-03-04T15:42:43;12.50;99.90
28193;DHT22;15473;50.840;3.396;2023-03-04T15:45:34;12.40;99.90
28193;DHT22;15473;50.840;3.396;2023-03-04T15:48:16;12.10;99.90
28193;DHT22;15473;50.840;3.396;2023-03-04T15:51:10;11.90;99.90
28193;DHT22;15473;50.840;3.396;2023-03-04T15:53:55;11.70;99.90
28193;DHT22;15473;50.840;3.396;2023-03-04T16:08:26;11.30;99.90
28193;DHT22;15473;50.840;3.396;2023-03-04T16:11:26;10.60;99.90
28193;DHT22;15473;50.840;3.396;2023-03-04T16:13:51;10.40;99.90
28193;DHT22;15473;50.840;3.396;2023-03-04T16:16:27;10.30;99.90
28193;DHT22;15473;50.840;3.396;2023-03-04T16:18:57;10.20;99.90
28193;DHT22;15473;50.840;3.396;2023-03-04T16:21:33;10.10;99.90
28193;DHT22;15473;50.840;3.396;2023-03-04T16:24:17;10.10;99.90
28193;DHT22;15473;50.840;3.396;2023-03-04T16:26:48;10.00;99.90
28193;DHT22;15473;50.840;3.396;2023-03-04T16:29:44;9.90;99.90
28193;DHT22;15473;50.840;3.396;2023-03-04T16:32:16;9.70;99.90
28193;DHT22;15473;50.840;3.396;2023-03-04T16:34:46;9.60;99.90
28193;DHT22;15473;50.840;3.396;2023-03-04T16:40:12;9.40;99.90
28193;DHT22;15473;50.840;3.396;2023-03-04T16:42:42;9.30;99.90
28193;DHT22;15473;50.840;3.396;2023-03-04T16:45:21;9.20;99.90
28193;DHT22;15473;50.840;3.396;2023-03-04T16:47:52;9.00;99.90
28193;DHT22;15473;50.840;3.396;2023-03-04T16:50:28;9.00;99.90
28193;DHT22;15473;50.840;3.396;2023-03-04T16:52:59;8.80;99.90
28193;DHT22;15473;50.840;3.396;2023-03-04T16:55:36;8.70;99.90
28193;DHT22;15473;50.840;3.396;2023-03-04T16:58:08;8.70;99.90
28193;DHT22;15473;50.840;3.396;2023-03-04T17:00:45;8.60;99.90
28193;DHT22;15473;50.840;3.396;2023-03-04T17:03:15;8.60;99.90
28193;DHT22;15473;50.840;3.396;2023-03-04T17:05:51;8.50;99.90
28193;DHT22;15473;50.840;3.396;2023-03-04T17:08:21;8.50;99.90
28193;DHT22;15473;50.840;3.396;2023-03-04T17:10:51;8.40;99.90
28193;DHT22;15473;50.840;3.396;2023-03-04T17:13:28;8.40;99.90
28193;DHT22;15473;50.840;3.396;2023-03-04T17:18:52;8.30;99.90
28193;DHT22;15473;50.840;3.396;2023-03-04T17:21:26;8.20;99.90
28193;DHT22;15473;50.840;3.396;2023-03-04T17:23:56;8.20;99.90
28193;DHT22;15473;50.840;3.396;2023-03-04T17:26:26;8.10;99.90
28193;DHT22;15473;50.840;3.396;2023-03-04T17:28:56;8.10;99.90
28193;DHT22;15473;50.840;3.396;2023-03-04T17:31:26;8.00;99.90
28193;DHT22;15473;50.840;3.396;2023-03-04T17:34:03;7.90;99.90
28193;DHT22;15473;50.840;3.396;2023-03-04T17:36:33;7.90;99.90
28193;DHT22;15473;50.840;3.396;2023-03-04T17:39:05;7.90;99.90
28193;DHT22;15473;50.840;3.396;2023-03-04T17:41:37;7.80;99.90
28193;DHT22;15473;50.840;3.396;2023-03-04T17:44:07;7.80;99.90
28193;DHT22;15473;50.840;3.396;2023-03-04T17:46:37;7.70;99.90
28193;DHT22;15473;50.840;3.396;2023-03-04T17:52:04;7.70;99.90
28193;DHT22;15473;50.840;3.396;2023-03-04T17:54:34;7.60;99.90
28193;DHT22;15473;50.840;3.396;2023-03-04T17:57:07;7.60;99.90
28193;DHT22;15473;50.840;3.396;2023-03-04T17:59:45;7.50;99.90
28193;DHT22;15473;50.840;3.396;2023-03-04T18:02:21;7.50;99.90
28193;DHT22;15473;50.840;3.396;2023-03-04T18:04:56;7.40;99.90
28193;DHT22;15473;50.840;3.396;2023-03-04T18:07:25;7.40;99.90
28193;DHT22;15473;50.840;3.396;2023-03-04T18:10:00;7.40;99.90
28193;DHT22;15473;50.840;3.396;2023-03-04T18:12:33;7.30;99.90
28193;DHT22;15473;50.840;3.396;2023-03-04T18:15:15;7.30;99.90
28193;DHT22;15473;50.840;3.396;2023-03-04T18:17:54;7.30;99.90
28193;DHT22;15473;50.840;3.396;2023-03-04T18:20:32;7.20;99.90
28193;DHT22;15473;50.840;3.396;2023-03-04T18:23:02;7.20;99.90
28193;DHT22;15473;50.840;3.396;2023-03-04T18:25:36;7.20;99.90
28193;DHT22;15473;50.840;3.396;2023-03-04T18:28:19;7.10;99.90
28193;DHT22;15473;50.840;3.396;2023-03-04T18:30:56;7.10;99.90
28193;DHT22;15473;50.840;3.396;2023-03-04T18:33:33;7.00;99.90
28193;DHT22;15473;50.840;3.396;2023-03-04T18:36:10;7.00;99.90
28193;DHT22;15473;50.840;3.396;2023-03-04T18:38:41;7.00;99.90
28193;DHT22;15473;50.840;3.396;2023-03-04T18:41:15;6.90;99.90
28193;DHT22;15473;50.840;3.396;2023-03-04T18:43:53;6.90;99.90
28193;DHT22;15473;50.840;3.396;2023-03-04T18:46:33;6.90;99.90
28193;DHT22;15473;50.840;3.396;2023-03-04T18:49:05;6.90;99.90
28193;DHT22;15473;50.840;3.396;2023-03-04T18:51:45;6.80;99.90
28193;DHT22;15473;50.840;3.396;2023-03-04T18:54:18;6.80;99.90
28193;DHT22;15473;50.840;3.396;2023-03-04T18:59:56;6.70;99.90
28193;DHT22;15473;50.840;3.396;2023-03-04T19:02:34;6.70;99.90
28193;DHT22;15473;50.840;3.396;2023-03-04T19:05:10;6.60;99.90
28193;DHT22;15473;50.840;3.396;2023-03-04T19:07:41;6.60;99.90
28193;DHT22;15473;50.840;3.396;2023-03-04T19:10:12;6.60;99.90
28193;DHT22;15473;50.840;3.396;2023-03-04T19:12:43;6.50;99.90
28193;DHT22;15473;50.840;3.396;2023-03-04T19:15:13;6.50;99.90
28193;DHT22;15473;50.840;3.396;2023-03-04T19:17:44;6.50;99.90